createdAt,value
2018-09-17T00:01:42.003Z,8.20
2018-09-17T00:04:11.590Z,8.13
2018-09-17T00:06:41.176Z,8.10
2018-09-17T00:09:12.498Z,7.73
2018-09-17T00:11:42.094Z,6.97
2018-09-17T00:14:11.703Z,7.40
2018-09-17T00:16:41.318Z,7.40
2018-09-17T00:19:10.981Z,7.20
2018-09-17T00:21:40.598Z,7.00
2018-09-17T00:24:11.290Z,6.50
2018-09-17T00:26:41.317Z,7.83
2018-09-17T00:29:10.922Z,6.93
2018-09-17T00:31:40.547Z,6.70
2018-09-17T00:34:10.126Z,6.73
2018-09-17T00:36:39.803Z,6.77
2018-09-17T00:39:11.646Z,6.50
2018-09-17T00:41:41.267Z,6.33
2018-09-17T00:44:10.856Z,6.83
2018-09-17T00:46:41.205Z,7.13
2018-09-17T00:49:10.775Z,6.63
2018-09-17T00:51:42.799Z,7.43
2018-09-17T00:54:12.404Z,7.47
2018-09-17T00:56:42.114Z,7.43
2018-09-17T00:59:11.885Z,7.13
2018-09-17T01:01:41.519Z,6.67
2018-09-17T01:04:11.212Z,7.60
2018-09-17T01:06:40.817Z,6.40
2018-09-17T01:09:14.470Z,6.63
2018-09-17T01:11:44.107Z,7.57
2018-09-17T01:14:13.732Z,7.20
2018-09-17T01:16:43.382Z,7.20
2018-09-17T01:19:14.371Z,6.70
2018-09-17T01:21:44.045Z,7.37
2018-09-17T01:24:13.736Z,7.17
2018-09-17T01:26:43.916Z,7.77
2018-09-17T01:29:13.507Z,12.53
2018-09-17T01:31:43.294Z,7.50
2018-09-17T01:34:13.513Z,7.77
2018-09-17T01:36:43.117Z,7.97
2018-09-17T01:39:13.274Z,6.40
2018-09-17T01:41:42.958Z,6.80
2018-09-17T01:44:12.723Z,7.40
2018-09-17T01:46:42.374Z,8.23
2018-09-17T01:49:11.996Z,7.40
2018-09-17T01:51:41.665Z,7.20
2018-09-17T01:54:11.399Z,7.70
2018-09-17T01:56:41.237Z,8.10
2018-09-17T01:59:11.002Z,7.50
2018-09-17T02:01:40.925Z,7.30
2018-09-17T02:04:10.846Z,7.63
2018-09-17T02:06:40.560Z,6.47
2018-09-17T02:09:10.399Z,6.63
2018-09-17T02:11:40.109Z,6.90
2018-09-17T02:14:09.965Z,7.67
2018-09-17T02:16:39.676Z,7.63
2018-09-17T02:19:09.530Z,7.93
2018-09-17T02:21:39.550Z,7.80
2018-09-17T02:24:09.406Z,8.13
2018-09-17T02:26:39.337Z,8.10
2018-09-17T02:29:09.013Z,7.43
2018-09-17T02:31:38.715Z,8.70
2018-09-17T02:34:08.669Z,8.30
2018-09-17T02:36:38.337Z,8.07
2018-09-17T02:39:09.068Z,7.90
2018-09-17T02:41:38.887Z,8.17
2018-09-17T02:44:09.273Z,8.30
2018-09-17T02:46:39.097Z,7.23
2018-09-17T02:49:08.865Z,7.90
2018-09-17T02:51:38.630Z,8.60
2018-09-17T02:54:08.361Z,8.43
2018-09-17T02:56:38.163Z,8.60
2018-09-17T02:59:07.871Z,8.83
2018-09-17T03:01:37.691Z,8.57
2018-09-17T03:04:07.570Z,8.97
2018-09-17T03:06:37.317Z,8.67
2018-09-17T03:09:09.772Z,8.90
2018-09-17T03:11:39.742Z,8.40
2018-09-17T03:14:09.534Z,9.20
2018-09-17T03:16:56.193Z,8.70
2018-09-17T03:19:25.996Z,8.90
2018-09-17T03:21:56.043Z,9.90
2018-09-17T03:24:25.814Z,9.23
2018-09-17T03:26:55.500Z,9.67
2018-09-17T03:29:25.244Z,8.73
2018-09-17T03:31:55.022Z,8.53
2018-09-17T03:34:24.767Z,9.87
2018-09-17T03:36:55.025Z,9.80
2018-09-17T03:39:24.823Z,9.57
2018-09-17T03:41:55.424Z,10.00
2018-09-17T03:44:25.137Z,9.23
2018-09-17T03:46:54.875Z,9.57
2018-09-17T03:49:25.114Z,9.47
2018-09-17T03:51:54.851Z,10.10
2018-09-17T03:54:24.562Z,10.17
2018-09-17T03:56:54.309Z,10.50
2018-09-17T03:59:24.022Z,9.90
2018-09-17T04:01:53.697Z,10.10
2018-09-17T04:04:24.978Z,9.60
2018-09-17T04:06:54.751Z,11.03
2018-09-17T04:09:24.911Z,10.07
2018-09-17T04:11:54.805Z,10.43
2018-09-17T04:14:24.802Z,10.43
2018-09-17T04:16:54.983Z,9.90
2018-09-17T04:19:24.689Z,9.43
2018-09-17T04:21:54.437Z,10.47
2018-09-17T04:24:24.146Z,8.93
2018-09-17T04:26:53.943Z,10.17
2018-09-17T04:29:23.664Z,9.70
2018-09-17T04:31:53.368Z,9.83
2018-09-17T04:34:23.073Z,10.53
2018-09-17T04:36:52.818Z,8.97
2018-09-17T04:39:24.201Z,9.70
2018-09-17T04:41:53.930Z,9.40
2018-09-17T04:44:23.656Z,9.37
2018-09-17T04:46:53.435Z,9.50
2018-09-17T04:49:23.181Z,9.93
2018-09-17T04:51:52.975Z,10.57
2018-09-17T04:54:22.786Z,10.60
2018-09-17T04:56:52.537Z,10.27
2018-09-17T04:59:22.276Z,8.67
2018-09-17T05:01:52.017Z,9.60
2018-09-17T05:04:21.716Z,9.47
2018-09-17T05:06:51.489Z,9.83
2018-09-17T05:09:21.200Z,8.97
2018-09-17T05:11:50.898Z,8.37
2018-09-17T05:14:20.693Z,9.40
2018-09-17T05:16:50.468Z,8.87
2018-09-17T05:19:20.184Z,9.07
2018-09-17T05:21:49.926Z,8.33
2018-09-17T05:24:19.691Z,7.20
2018-09-17T05:26:49.639Z,7.03
2018-09-17T05:29:19.985Z,7.97
2018-09-17T05:31:49.931Z,6.93
2018-09-17T05:34:19.617Z,6.67
2018-09-17T05:36:49.388Z,7.57
2018-09-17T05:39:19.107Z,6.90
2018-09-17T05:41:49.153Z,6.10
2018-09-17T05:44:18.967Z,6.43
2018-09-17T05:46:48.783Z,6.90
2018-09-17T05:49:18.521Z,6.40
2018-09-17T05:51:48.228Z,6.30
2018-09-17T05:54:18.010Z,7.20
2018-09-17T05:56:47.693Z,5.80
2018-09-17T05:59:17.533Z,6.33
2018-09-17T06:01:47.246Z,6.20
2018-09-17T06:04:17.187Z,5.40
2018-09-17T06:06:46.937Z,5.87
2018-09-17T06:09:16.699Z,6.03
2018-09-17T06:11:46.547Z,5.07
2018-09-17T06:14:16.303Z,5.40
2018-09-17T06:16:46.056Z,5.00
2018-09-17T06:19:15.894Z,4.87
2018-09-17T06:21:45.916Z,4.90
2018-09-17T06:24:15.656Z,5.00
2018-09-17T06:26:45.412Z,5.17
2018-09-17T06:29:15.160Z,7.40
2018-09-17T06:31:44.897Z,9.37
2018-09-17T06:34:14.642Z,5.50
2018-09-17T06:36:44.354Z,5.53
2018-09-17T06:39:14.127Z,4.73
2018-09-17T06:41:43.957Z,4.60
2018-09-17T06:44:14.195Z,12.47
2018-09-17T06:46:43.910Z,5.63
2018-09-17T06:49:13.617Z,18.83
2018-09-17T06:51:43.349Z,9.33
2018-09-17T06:54:13.046Z,4.47
2018-09-17T06:56:42.814Z,4.40
2018-09-17T06:59:12.534Z,4.30
2018-09-17T07:01:42.261Z,4.90
2018-09-17T07:04:11.995Z,5.37
2018-09-17T07:06:41.778Z,4.00
2018-09-17T07:09:12.496Z,4.27
2018-09-17T07:11:42.220Z,4.00
2018-09-17T07:14:11.972Z,3.70
2018-09-17T07:16:41.816Z,5.33
2018-09-17T07:19:11.629Z,3.93
2018-09-17T07:21:41.406Z,3.50
2018-09-17T07:24:11.118Z,4.10
2018-09-17T07:26:41.093Z,5.17
2018-09-17T07:29:10.801Z,5.00
2018-09-17T07:31:40.554Z,4.17
2018-09-17T07:34:10.276Z,4.03
2018-09-17T07:36:40.117Z,3.40
2018-09-17T07:39:11.894Z,3.40
2018-09-17T07:41:41.786Z,3.40
2018-09-17T07:44:11.552Z,3.97
2018-09-17T07:46:41.257Z,3.67
2018-09-17T07:49:11.105Z,3.07
2018-09-17T07:51:40.896Z,6.37
2018-09-17T07:54:10.782Z,2.90
2018-09-17T07:56:40.587Z,3.97
2018-09-17T07:59:10.597Z,3.50
2018-09-17T08:01:40.547Z,8.50
2018-09-17T08:04:10.310Z,5.63
2018-09-17T08:06:40.219Z,2.90
2018-09-17T08:09:13.093Z,2.70
2018-09-17T08:11:43.832Z,2.50
2018-09-17T08:14:14.906Z,2.83
2018-09-17T08:16:44.654Z,3.30
2018-09-17T08:19:14.377Z,3.33
2018-09-17T08:21:44.113Z,2.30
2018-09-17T08:24:13.829Z,2.40
2018-09-17T08:26:43.511Z,4.40
2018-09-17T08:29:13.316Z,3.03
2018-09-17T08:31:43.088Z,3.17
2018-09-17T08:34:13.117Z,2.60
2018-09-17T08:36:42.884Z,3.90
2018-09-17T08:39:13.843Z,3.23
2018-09-17T08:41:43.840Z,2.70
2018-09-17T08:44:13.627Z,2.10
2018-09-17T08:46:43.401Z,2.80
2018-09-17T08:49:13.121Z,2.57
2018-09-17T08:51:42.874Z,3.10
2018-09-17T08:54:12.595Z,2.40
2018-09-17T08:56:50.285Z,2.03
2018-09-17T08:59:25.246Z,2.13
2018-09-17T09:01:59.953Z,3.77
2018-09-17T09:04:34.962Z,29.33
2018-09-17T09:07:07.978Z,12.63
2018-09-17T09:09:37.781Z,8.77
2018-09-17T09:12:12.907Z,4.30
2018-09-17T09:14:42.613Z,3.00
2018-09-17T09:17:12.477Z,2.70
2018-09-17T09:19:42.256Z,3.43
2018-09-17T09:22:11.946Z,3.07
2018-09-17T09:24:41.888Z,2.50
2018-09-17T09:27:11.482Z,2.27
2018-09-17T09:29:41.461Z,2.50
2018-09-17T09:32:11.207Z,2.70
2018-09-17T09:34:41.049Z,2.80
2018-09-17T09:37:10.824Z,1.83
2018-09-17T09:39:40.722Z,2.63
2018-09-17T09:42:10.513Z,2.10
2018-09-17T09:44:40.313Z,1.87
2018-09-17T09:47:10.048Z,2.50
2018-09-17T09:49:39.861Z,2.17
2018-09-17T09:52:09.704Z,2.47
2018-09-17T09:54:39.668Z,2.23
2018-09-17T09:57:09.400Z,1.90
2018-09-17T09:59:39.177Z,2.93
2018-09-17T10:02:14.075Z,3.00
2018-09-17T10:04:43.757Z,2.10
2018-09-17T10:07:19.285Z,1.90
2018-09-17T10:10:51.818Z,2.33
2018-09-17T10:13:26.909Z,1.40
2018-09-17T10:15:57.909Z,2.17
2018-09-17T10:18:33.281Z,1.80
2018-09-17T10:21:03.049Z,1.90
2018-09-17T10:23:32.790Z,1.20
2018-09-17T10:26:09.027Z,1.50
2018-09-17T10:28:44.354Z,1.40
2018-09-17T10:31:14.166Z,1.80
2018-09-17T10:33:44.081Z,1.97
2018-09-17T10:36:13.824Z,2.40
2018-09-17T10:38:43.558Z,1.77
2018-09-17T10:41:13.254Z,1.40
2018-09-17T10:43:43.020Z,1.77
2018-09-17T10:46:12.817Z,1.60
2018-09-17T10:48:42.610Z,1.90
2018-09-17T10:51:12.309Z,1.93
2018-09-17T10:53:42.029Z,2.30
2018-09-17T10:56:11.812Z,2.03
2018-09-17T10:58:41.639Z,1.40
2018-09-17T11:01:11.429Z,2.00
2018-09-17T11:03:41.317Z,1.23
2018-09-17T11:06:11.208Z,1.90
2018-09-17T11:08:40.976Z,1.53
2018-09-17T11:11:10.684Z,1.80
2018-09-17T11:13:40.647Z,2.90
2018-09-17T11:16:10.360Z,1.50
2018-09-17T11:18:40.082Z,2.87
2018-09-17T11:21:09.800Z,1.10
2018-09-17T11:23:39.567Z,2.23
2018-09-17T11:26:09.360Z,2.30
2018-09-17T11:28:39.067Z,3.73
2018-09-17T11:31:08.870Z,2.10
2018-09-17T11:33:38.582Z,2.20
2018-09-17T11:36:08.521Z,2.10
2018-09-17T11:38:38.504Z,2.13
2018-09-17T11:41:08.319Z,2.30
2018-09-17T11:43:38.089Z,5.80
2018-09-17T11:46:07.929Z,4.30
2018-09-17T11:48:37.613Z,1.70
2018-09-17T11:51:07.360Z,1.73
2018-09-17T11:53:37.068Z,3.30
2018-09-17T11:56:06.835Z,1.50
2018-09-17T11:58:36.650Z,1.93
2018-09-17T12:01:11.677Z,1.60
2018-09-17T12:03:46.543Z,1.90
2018-09-17T12:06:23.084Z,1.50
2018-09-17T12:08:52.761Z,1.80
2018-09-17T12:11:22.528Z,1.50
2018-09-17T12:13:52.252Z,1.73
2018-09-17T12:16:22.026Z,2.07
2018-09-17T12:18:51.812Z,3.33
2018-09-17T12:21:21.574Z,1.80
2018-09-17T12:23:51.376Z,1.63
2018-09-17T12:26:21.168Z,1.63
2018-09-17T12:28:50.870Z,1.83
2018-09-17T12:31:20.785Z,1.80
2018-09-17T12:33:50.558Z,1.67
2018-09-17T12:36:20.354Z,1.97
2018-09-17T12:38:50.152Z,1.70
2018-09-17T12:41:19.894Z,1.60
2018-09-17T12:43:49.848Z,2.00
2018-09-17T12:46:19.601Z,1.57
2018-09-17T12:48:49.344Z,1.50
2018-09-17T12:51:19.040Z,1.73
2018-09-17T12:53:48.797Z,2.00
2018-09-17T12:56:18.612Z,1.70
2018-09-17T12:58:48.346Z,2.13
2018-09-17T13:01:18.161Z,1.77
2018-09-17T13:03:48.018Z,1.40
2018-09-17T13:06:17.837Z,1.90
2018-09-17T13:08:47.654Z,1.70
2018-09-17T13:11:17.525Z,2.30
2018-09-17T13:13:47.297Z,2.27
2018-09-17T13:16:17.050Z,1.83
2018-09-17T13:18:46.826Z,1.80
2018-09-17T13:21:17.549Z,2.70
2018-09-17T13:23:47.316Z,1.97
2018-09-17T13:26:17.312Z,1.93
2018-09-17T13:28:47.217Z,1.97
2018-09-17T13:31:16.906Z,1.83
2018-09-17T13:33:46.599Z,2.30
2018-09-17T13:36:16.297Z,1.70
2018-09-17T13:38:46.000Z,1.90
2018-09-17T13:41:22.227Z,1.57
2018-09-17T13:43:51.945Z,2.50
2018-09-17T13:46:22.001Z,2.30
2018-09-17T13:48:51.713Z,2.13
2018-09-17T13:51:21.421Z,2.53
2018-09-17T13:53:51.138Z,1.90
2018-09-17T13:56:20.893Z,2.27
2018-09-17T13:58:50.580Z,2.30
2018-09-17T14:01:20.332Z,2.47
2018-09-17T14:03:50.034Z,4.80
2018-09-17T14:06:19.738Z,2.20
2018-09-17T14:08:49.493Z,1.60
2018-09-17T14:11:19.271Z,2.40
2018-09-17T14:13:48.989Z,2.43
2018-09-17T14:16:23.920Z,2.00
2018-09-17T14:18:53.660Z,2.63
2018-09-17T14:21:23.467Z,2.30
2018-09-17T14:23:53.258Z,1.40
2018-09-17T14:26:23.042Z,2.07
2018-09-17T14:28:52.862Z,1.73
2018-09-17T14:31:27.877Z,2.03
2018-09-17T14:33:57.604Z,1.70
2018-09-17T14:36:27.365Z,1.23
2018-09-17T14:38:57.118Z,1.43
2018-09-17T14:41:26.804Z,1.30
2018-09-17T14:43:56.597Z,1.33
2018-09-17T14:46:26.465Z,1.40
2018-09-17T14:48:56.178Z,1.67
2018-09-17T14:51:25.898Z,2.37
2018-09-17T14:53:55.812Z,1.83
2018-09-17T14:56:25.780Z,1.40
2018-09-17T14:58:55.545Z,2.10
2018-09-17T15:01:25.284Z,1.53
2018-09-17T15:03:54.988Z,1.73
2018-09-17T15:06:24.798Z,1.50
2018-09-17T15:08:54.622Z,1.73
2018-09-17T15:11:24.374Z,1.80
2018-09-17T15:13:54.187Z,2.03
2018-09-17T15:16:24.079Z,1.50
2018-09-17T15:18:53.781Z,1.93
2018-09-17T15:21:23.533Z,1.40
2018-09-17T15:23:53.498Z,1.70
2018-09-17T15:26:23.349Z,2.40
2018-09-17T15:28:53.017Z,2.00
2018-09-17T15:31:22.779Z,2.77
2018-09-17T15:33:52.467Z,1.90
2018-09-17T15:36:22.207Z,1.57
2018-09-17T15:38:51.917Z,2.10
2018-09-17T15:41:27.979Z,1.60
2018-09-17T15:43:57.590Z,1.70
2018-09-17T15:46:27.360Z,2.23
2018-09-17T15:48:57.114Z,1.80
2018-09-17T15:51:26.804Z,1.77
2018-09-17T15:53:56.561Z,2.00
2018-09-17T15:56:26.267Z,1.77
2018-09-17T15:58:56.190Z,2.07
2018-09-17T16:01:25.887Z,2.40
2018-09-17T16:03:55.637Z,1.73
2018-09-17T16:06:25.340Z,2.20
2018-09-17T16:08:55.034Z,1.60
2018-09-17T16:11:24.797Z,2.47
2018-09-17T16:13:54.571Z,2.47
2018-09-17T16:16:24.278Z,2.20
2018-09-17T16:18:53.937Z,1.70
2018-09-17T16:21:23.653Z,2.70
2018-09-17T16:23:53.335Z,2.53
2018-09-17T16:26:23.104Z,2.20
2018-09-17T16:28:52.902Z,1.70
2018-09-17T16:31:22.552Z,2.37
2018-09-17T16:33:52.321Z,2.10
2018-09-17T16:36:22.068Z,3.20
2018-09-17T16:38:51.779Z,3.60
2018-09-17T16:41:21.497Z,2.50
2018-09-17T16:43:51.189Z,3.10
2018-09-17T16:46:21.018Z,3.63
2018-09-17T16:48:50.758Z,2.87
2018-09-17T16:51:20.582Z,3.20
2018-09-17T16:53:50.302Z,3.33
2018-09-17T16:56:20.174Z,2.80
2018-09-17T16:58:49.951Z,3.00
2018-09-17T17:01:19.702Z,2.70
2018-09-17T17:03:49.423Z,3.10
2018-09-17T17:06:19.162Z,3.73
2018-09-17T17:08:48.887Z,3.20
2018-09-17T17:11:18.629Z,3.87
2018-09-17T17:13:48.602Z,4.10
2018-09-17T17:16:18.954Z,4.07
2018-09-17T17:18:48.678Z,4.00
2018-09-17T17:21:18.341Z,5.17
2018-09-17T17:23:48.496Z,4.90
2018-09-17T17:26:18.192Z,5.40
2018-09-17T17:28:48.163Z,5.47
2018-09-17T17:31:17.885Z,4.80
2018-09-17T17:33:47.691Z,5.50
2018-09-17T17:36:17.406Z,5.70
2018-09-17T17:38:47.102Z,5.40
2018-09-17T17:41:23.462Z,5.37
2018-09-17T17:43:53.137Z,4.63
2018-09-17T17:46:22.899Z,6.60
2018-09-17T17:48:52.698Z,6.20
2018-09-17T17:51:22.417Z,8.90
2018-09-17T17:53:52.186Z,7.23
2018-09-17T17:56:21.889Z,5.60
2018-09-17T17:58:51.597Z,9.87
2018-09-17T18:01:21.628Z,10.17
2018-09-17T18:03:51.383Z,9.50
2018-09-17T18:06:21.539Z,7.80
2018-09-17T18:08:51.292Z,8.30
2018-09-17T18:11:21.311Z,7.80
2018-09-17T18:13:51.144Z,7.90
2018-09-17T18:16:24.822Z,7.80
2018-09-17T18:18:54.525Z,8.27
2018-09-17T18:21:24.315Z,8.33
2018-09-17T18:23:54.031Z,10.23
2018-09-17T18:26:23.815Z,17.80
2018-09-17T18:28:53.709Z,10.40
2018-09-17T18:31:23.394Z,10.60
2018-09-17T18:33:53.793Z,13.50
2018-09-17T18:36:23.863Z,14.70
2018-09-17T18:38:53.762Z,19.30
2018-09-17T18:41:23.421Z,15.33
2018-09-17T18:43:53.270Z,13.40
2018-09-17T18:46:23.018Z,8.43
2018-09-17T18:48:52.845Z,17.40
2018-09-17T18:51:22.755Z,12.67
2018-09-17T18:53:52.641Z,14.50
2018-09-17T18:56:22.495Z,17.60
2018-09-17T18:58:52.172Z,16.10
2018-09-17T19:01:21.910Z,19.23
2018-09-17T19:03:51.735Z,64.50
2018-09-17T19:06:21.577Z,27.00
2018-09-17T19:08:51.281Z,28.53
2018-09-17T19:11:21.164Z,11.53
2018-09-17T19:13:56.153Z,16.63
2018-09-17T19:16:30.990Z,25.53
2018-09-17T19:19:00.793Z,18.73
2018-09-17T19:21:35.871Z,19.53
2018-09-17T19:24:07.033Z,17.20
2018-09-17T19:26:36.700Z,18.53
2018-09-17T19:29:11.550Z,22.30
2018-09-17T19:31:41.236Z,21.43
2018-09-17T19:34:10.975Z,21.43
2018-09-17T19:36:40.648Z,27.30
2018-09-17T19:39:15.609Z,24.20
2018-09-17T19:41:45.703Z,24.67
2018-09-17T19:44:15.441Z,18.90
2018-09-17T19:46:45.121Z,18.67
2018-09-17T19:49:14.864Z,16.10
2018-09-17T19:51:49.792Z,12.50
2018-09-17T19:54:26.151Z,9.00
2018-09-17T19:56:55.800Z,8.10
2018-09-17T19:59:30.854Z,9.90
2018-09-17T20:02:00.554Z,8.40
2018-09-17T20:04:35.554Z,7.80
2018-09-17T20:07:05.262Z,9.80
2018-09-17T20:09:35.114Z,13.40
2018-09-17T20:12:04.847Z,11.13
2018-09-17T20:14:34.593Z,14.50
2018-09-17T20:17:04.321Z,17.57
2018-09-17T20:19:34.020Z,12.47
2018-09-17T20:22:03.759Z,14.17
2018-09-17T20:24:33.590Z,16.90
2018-09-17T20:27:03.530Z,16.37
2018-09-17T20:29:33.226Z,14.80
2018-09-17T20:32:02.949Z,15.93
2018-09-17T20:34:32.949Z,16.60
2018-09-17T20:37:02.824Z,18.33
2018-09-17T20:39:32.541Z,16.50
2018-09-17T20:42:02.284Z,16.57
2018-09-17T20:44:31.979Z,15.23
2018-09-17T20:47:01.677Z,14.77
2018-09-17T20:49:31.446Z,13.77
2018-09-17T20:52:01.093Z,13.93
2018-09-17T20:54:30.805Z,10.53
2018-09-17T20:57:00.517Z,10.17
2018-09-17T20:59:30.222Z,9.93
2018-09-17T21:01:59.940Z,9.83
2018-09-17T21:04:29.785Z,10.07
2018-09-17T21:06:59.674Z,11.97
2018-09-17T21:09:29.430Z,20.37
2018-09-17T21:11:59.326Z,17.00
2018-09-17T21:14:29.004Z,13.87
2018-09-17T21:16:58.732Z,16.03
2018-09-17T21:19:28.718Z,13.90
2018-09-17T21:21:58.381Z,8.33
2018-09-17T21:24:28.102Z,9.03
2018-09-17T21:26:57.847Z,8.80
2018-09-17T21:29:27.595Z,9.03
2018-09-17T21:31:57.314Z,6.80
2018-09-17T21:34:27.218Z,8.40
2018-09-17T21:36:56.979Z,7.10
2018-09-17T21:39:26.643Z,8.10
2018-09-17T21:41:56.477Z,8.80
2018-09-17T21:44:26.228Z,7.67
2018-09-17T21:46:55.933Z,8.07
2018-09-17T21:49:25.700Z,7.63
2018-09-17T21:51:55.404Z,7.47
2018-09-17T21:54:25.133Z,8.07
2018-09-17T21:56:54.846Z,5.90
2018-09-17T21:59:24.618Z,7.70
2018-09-17T22:01:54.336Z,5.90
2018-09-17T22:04:24.148Z,7.80
2018-09-17T22:06:53.865Z,8.07
2018-09-17T22:09:23.601Z,7.57
2018-09-17T22:11:53.478Z,6.93
2018-09-17T22:14:23.165Z,8.27
2018-09-17T22:16:52.910Z,6.67
2018-09-17T22:19:22.815Z,7.60
2018-09-17T22:21:52.486Z,7.83
2018-09-17T22:24:22.237Z,7.40
2018-09-17T22:26:52.051Z,7.13
2018-09-17T22:29:21.787Z,6.90
2018-09-17T22:31:51.506Z,7.13
2018-09-17T22:34:21.489Z,7.70
2018-09-17T22:36:51.161Z,7.77
2018-09-17T22:39:20.930Z,6.47
2018-09-17T22:41:50.615Z,5.20
2018-09-17T22:44:20.289Z,7.43
2018-09-17T22:46:49.978Z,7.73
2018-09-17T22:49:19.785Z,7.30
2018-09-17T22:51:49.511Z,6.33
2018-09-17T22:54:19.193Z,6.93
2018-09-17T22:56:49.078Z,6.67
2018-09-17T22:59:18.792Z,7.47
2018-09-17T23:01:48.495Z,6.50
2018-09-17T23:04:18.213Z,7.13
2018-09-17T23:06:47.869Z,7.13
2018-09-17T23:09:17.556Z,7.40
2018-09-17T23:11:47.437Z,7.80
2018-09-17T23:14:17.203Z,7.97
2018-09-17T23:16:46.918Z,6.03
2018-09-17T23:19:16.736Z,6.60
2018-09-17T23:21:46.406Z,7.30
2018-09-17T23:24:16.152Z,6.70
2018-09-17T23:26:45.834Z,7.27
2018-09-17T23:29:15.535Z,7.70
2018-09-17T23:31:45.281Z,8.80
2018-09-17T23:34:15.146Z,7.37
2018-09-17T23:36:44.841Z,7.67
2018-09-17T23:39:14.549Z,7.03
2018-09-17T23:41:44.290Z,6.30
2018-09-17T23:44:14.002Z,7.20
2018-09-17T23:46:43.736Z,6.90
2018-09-17T23:49:13.441Z,7.43
2018-09-17T23:51:43.129Z,7.47
2018-09-17T23:54:12.845Z,7.30
2018-09-17T23:56:42.739Z,7.00
2018-09-17T23:59:12.460Z,8.13
